sensor_id;sensor_type;location;lat;lon;timestamp;pressure;altitude;pressure_sealevel;temperature;humidity
71938;BME280;59810;48.800;9.086;2023-01-01T00:00:04;97868.19;;;15.23;59.53
71938;BME280;59810;48.800;9.086;2023-01-01T00:02:31;97875.53;;;15.17;59.62
71938;BME280;59810;48.800;9.086;2023-01-01T00:04:56;97874.19;;;15.15;59.71
71938;BME280;59810;48.800;9.086;2023-01-01T00:07:24;97878.28;;;15.07;59.88
71938;BME280;59810;48.800;9.086;2023-01-01T00:09:52;97869.28;;;15.07;60.09
71938;BME280;59810;48.800;9.086;2023-01-01T00:12:36;97876.91;;;15.05;60.07
71938;BME280;59810;48.800;9.086;2023-01-01T00:15:01;97883.72;;;15.07;59.70
71938;BME280;59810;48.800;9.086;2023-01-01T00:17:28;97879.63;;;15.05;59.75
71938;BME280;59810;48.800;9.086;2023-01-01T00:19:53;97879.91;;;15.03;59.79
71938;BME280;59810;48.800;9.086;2023-01-01T00:22:21;97883.44;;;14.99;60.27
71938;BME280;59810;48.800;9.086;2023-01-01T00:24:46;97880.69;;;14.93;60.22
71938;BME280;59810;48.800;9.086;2023-01-01T00:27:12;97877.19;;;14.98;60.36
71938;BME280;59810;48.800;9.086;2023-01-01T00:29:37;97866.28;;;14.93;60.02
71938;BME280;59810;48.800;9.086;2023-01-01T00:32:03;97876.88;;;14.94;60.32
71938;BME280;59810;48.800;9.086;2023-01-01T00:34:28;97877.44;;;14.91;60.71
71938;BME280;59810;48.800;9.086;2023-01-01T00:36:57;97879.88;;;14.93;60.38
71938;BME280;59810;48.800;9.086;2023-01-01T00:39:24;97876.06;;;14.84;60.45
71938;BME280;59810;48.800;9.086;2023-01-01T00:41:52;97880.97;;;14.87;60.47
71938;BME280;59810;48.800;9.086;2023-01-01T00:44:20;97886.41;;;14.87;60.56
71938;BME280;59810;48.800;9.086;2023-01-01T00:46:45;97892.94;;;14.81;60.86
71938;BME280;59810;48.800;9.086;2023-01-01T00:49:10;97886.69;;;14.75;60.88
71938;BME280;59810;48.800;9.086;2023-01-01T00:51:36;97894.28;;;14.78;60.66
71938;BME280;59810;48.800;9.086;2023-01-01T00:54:03;97895.09;;;14.79;60.78
71938;BME280;59810;48.800;9.086;2023-01-01T00:56:31;97893.22;;;14.79;60.98
71938;BME280;59810;48.800;9.086;2023-01-01T00:58:57;97894.84;;;14.75;60.71
71938;BME280;59810;48.800;9.086;2023-01-01T01:01:22;97900.00;;;14.77;61.15
71938;BME280;59810;48.800;9.086;2023-01-01T01:03:50;97895.09;;;14.69;61.38
71938;BME280;59810;48.800;9.086;2023-01-01T01:06:16;97889.41;;;14.70;60.92
71938;BME280;59810;48.800;9.086;2023-01-01T01:08:44;97878.25;;;14.67;61.01
71938;BME280;59810;48.800;9.086;2023-01-01T01:11:15;97880.16;;;14.66;61.47
71938;BME280;59810;48.800;9.086;2023-01-01T01:13:43;97879.56;;;14.59;61.21
71938;BME280;59810;48.800;9.086;2023-01-01T01:16:15;97887.47;;;14.60;61.40
71938;BME280;59810;48.800;9.086;2023-01-01T01:18:41;97888.00;;;14.57;61.33
71938;BME280;59810;48.800;9.086;2023-01-01T01:21:07;97888.53;;;14.54;61.78
71938;BME280;59810;48.800;9.086;2023-01-01T01:23:33;97891.78;;;14.51;61.41
71938;BME280;59810;48.800;9.086;2023-01-01T01:26:06;97891.81;;;14.56;61.39
71938;BME280;59810;48.800;9.086;2023-01-01T01:28:32;97884.47;;;14.62;61.14
71938;BME280;59810;48.800;9.086;2023-01-01T01:31:00;97885.06;;;14.69;60.94
71938;BME280;59810;48.800;9.086;2023-01-01T01:33:25;97883.16;;;14.70;60.92
71938;BME280;59810;48.800;9.086;2023-01-01T01:35:51;97884.78;;;14.66;61.13
71938;BME280;59810;48.800;9.086;2023-01-01T01:38:16;97882.88;;;14.71;60.62
71938;BME280;59810;48.800;9.086;2023-01-01T01:40:42;97890.22;;;14.76;60.61
71938;BME280;59810;48.800;9.086;2023-01-01T01:43:21;97887.22;;;14.72;60.85
71938;BME280;59810;48.800;9.086;2023-01-01T01:45:48;97892.38;;;14.74;60.52
71938;BME280;59810;48.800;9.086;2023-01-01T01:48:16;97895.09;;;14.79;60.26
71938;BME280;59810;48.800;9.086;2023-01-01T01:50:44;97891.31;;;14.80;60.41
71938;BME280;59810;48.800;9.086;2023-01-01T01:53:17;97893.75;;;14.81;60.22
71938;BME280;59810;48.800;9.086;2023-01-01T01:55:50;97897.28;;;14.82;60.20
71938;BME280;59810;48.800;9.086;2023-01-01T01:58:16;97889.66;;;14.79;60.29
71938;BME280;59810;48.800;9.086;2023-01-01T02:00:43;97893.47;;;14.78;60.41
71938;BME280;59810;48.800;9.086;2023-01-01T02:03:17;97903.53;;;14.87;60.03
71938;BME280;59810;48.800;9.086;2023-01-01T02:05:47;97889.13;;;14.82;60.19
71938;BME280;59810;48.800;9.086;2023-01-01T02:08:14;97894.03;;;14.75;60.46
71938;BME280;59810;48.800;9.086;2023-01-01T02:10:41;97895.66;;;14.81;60.14
71938;BME280;59810;48.800;9.086;2023-01-01T02:13:09;97900.53;;;14.74;60.39
71938;BME280;59810;48.800;9.086;2023-01-01T02:15:51;97897.56;;;14.75;60.04
71938;BME280;59810;48.800;9.086;2023-01-01T02:18:24;97907.63;;;14.80;60.04
71938;BME280;59810;48.800;9.086;2023-01-01T02:29:04;97891.88;;;14.97;59.03
71938;BME280;59810;48.800;9.086;2023-01-01T02:31:36;97889.16;;;14.97;59.16
71938;BME280;59810;48.800;9.086;2023-01-01T02:34:08;97885.34;;;14.98;58.87
71938;BME280;59810;48.800;9.086;2023-01-01T02:36:41;97892.69;;;14.98;58.87
71938;BME280;59810;48.800;9.086;2023-01-01T02:39:09;97888.59;;;14.95;58.82
71938;BME280;59810;48.800;9.086;2023-01-01T02:41:39;97893.50;;;14.98;58.64
71938;BME280;59810;48.800;9.086;2023-01-01T02:44:06;97893.50;;;14.98;58.68
71938;BME280;59810;48.800;9.086;2023-01-01T02:46:33;97894.03;;;15.00;58.43
71938;BME280;59810;48.800;9.086;2023-01-01T02:48:59;97897.31;;;14.97;58.55
71938;BME280;59810;48.800;9.086;2023-01-01T02:59:41;97893.75;;;14.91;58.40
71938;BME280;59810;48.800;9.086;2023-01-01T03:11:58;97900.53;;;14.69;59.13
71938;BME280;59810;48.800;9.086;2023-01-01T03:19:38;97900.75;;;14.52;59.69
71938;BME280;59810;48.800;9.086;2023-01-01T03:22:10;97914.06;;;14.43;59.76
71938;BME280;59810;48.800;9.086;2023-01-01T03:24:42;97924.88;;;14.38;60.10
71938;BME280;59810;48.800;9.086;2023-01-01T03:27:13;97928.41;;;14.33;60.23
71938;BME280;59810;48.800;9.086;2023-01-01T03:29:42;97935.97;;;14.26;60.28
71938;BME280;59810;48.800;9.086;2023-01-01T03:32:12;97940.84;;;14.24;60.42
71938;BME280;59810;48.800;9.086;2023-01-01T03:34:43;97942.44;;;14.15;60.55
71938;BME280;59810;48.800;9.086;2023-01-01T03:37:14;97955.19;;;14.10;61.01
71938;BME280;59810;48.800;9.086;2023-01-01T03:39:50;97956.78;;;14.00;61.26
71938;BME280;59810;48.800;9.086;2023-01-01T03:42:23;97952.03;;;13.81;61.90
71938;BME280;59810;48.800;9.086;2023-01-01T03:44:53;97966.09;;;13.67;62.35
71938;BME280;59810;48.800;9.086;2023-01-01T03:47:22;97971.34;;;13.47;63.59
71938;BME280;59810;48.800;9.086;2023-01-01T03:49:48;97962.91;;;13.38;63.77
71938;BME280;59810;48.800;9.086;2023-01-01T03:55:20;97954.63;;;13.23;64.27
71938;BME280;59810;48.800;9.086;2023-01-01T03:57:56;97954.00;;;13.16;64.28
71938;BME280;59810;48.800;9.086;2023-01-01T04:00:29;97951.88;;;13.18;64.28
71938;BME280;59810;48.800;9.086;2023-01-01T04:02:59;97946.53;;;13.28;63.73
71938;BME280;59810;48.800;9.086;2023-01-01T04:05:27;97950.94;;;13.34;63.52
71938;BME280;59810;48.800;9.086;2023-01-01T04:07:59;97947.91;;;13.31;64.12
71938;BME280;59810;48.800;9.086;2023-01-01T04:10:29;97952.63;;;13.46;63.37
71938;BME280;59810;48.800;9.086;2023-01-01T04:12:56;97948.06;;;13.51;63.27
71938;BME280;59810;48.800;9.086;2023-01-01T04:15:28;97941.84;;;13.56;63.12
71938;BME280;59810;48.800;9.086;2023-01-01T04:17:54;97940.25;;;13.65;62.73
71938;BME280;59810;48.800;9.086;2023-01-01T04:20:20;97943.78;;;13.65;62.79
71938;BME280;59810;48.800;9.086;2023-01-01T04:22:48;97945.19;;;13.68;62.44
71938;BME280;59810;48.800;9.086;2023-01-01T04:25:14;97953.06;;;13.69;62.67
71938;BME280;59810;48.800;9.086;2023-01-01T04:27:42;97950.31;;;13.64;62.88
71938;BME280;59810;48.800;9.086;2023-01-01T04:30:11;97942.44;;;13.63;62.76
71938;BME280;59810;48.800;9.086;2023-01-01T04:32:38;97945.13;;;13.58;63.25
71938;BME280;59810;48.800;9.086;2023-01-01T04:35:04;97942.56;;;13.41;63.90
71938;BME280;59810;48.800;9.086;2023-01-01T04:37:30;97943.34;;;13.36;63.86
71938;BME280;59810;48.800;9.086;2023-01-01T04:39:55;97949.19;;;13.23;64.69
71938;BME280;59810;48.800;9.086;2023-01-01T04:42:20;97940.25;;;13.23;64.72
71938;BME280;59810;48.800;9.086;2023-01-01T04:44:48;97939.16;;;13.24;64.38
71938;BME280;59810;48.800;9.086;2023-01-01T04:47:13;97947.03;;;13.25;64.18
71938;BME280;59810;48.800;9.086;2023-01-01T04:49:38;97942.53;;;13.36;63.76
71938;BME280;59810;48.800;9.086;2023-01-01T04:52:04;97937.97;;;13.42;63.47
71938;BME280;59810;48.800;9.086;2023-01-01T04:54:29;97942.63;;;13.51;63.24
71938;BME280;59810;48.800;9.086;2023-01-01T04:56:55;97944.88;;;13.64;62.62
71938;BME280;59810;48.800;9.086;2023-01-01T04:59:20;97946.84;;;13.74;62.44
71938;BME280;59810;48.800;9.086;2023-01-01T05:01:45;97944.75;;;13.86;61.86
71938;BME280;59810;48.800;9.086;2023-01-01T05:04:15;97953.19;;;13.95;61.72
71938;BME280;59810;48.800;9.086;2023-01-01T05:06:41;97944.53;;;13.98;61.60
71938;BME280;59810;48.800;9.086;2023-01-01T05:09:08;97951.09;;;14.02;61.26
71938;BME280;59810;48.800;9.086;2023-01-01T05:11:34;97953.81;;;14.07;60.95
71938;BME280;59810;48.800;9.086;2023-01-01T05:14:02;97953.06;;;14.22;60.51
71938;BME280;59810;48.800;9.086;2023-01-01T05:16:31;97958.50;;;14.27;60.42
71938;BME280;59810;48.800;9.086;2023-01-01T05:18:57;97960.47;;;14.31;60.33
71938;BME280;59810;48.800;9.086;2023-01-01T05:21:33;97952.03;;;14.33;60.39
71938;BME280;59810;48.800;9.086;2023-01-01T05:24:01;97958.78;;;14.30;60.39
71938;BME280;59810;48.800;9.086;2023-01-01T05:26:31;97969.72;;;14.36;60.09
71938;BME280;59810;48.800;9.086;2023-01-01T05:28:58;97972.69;;;14.39;59.96
71938;BME280;59810;48.800;9.086;2023-01-01T05:31:28;97963.78;;;14.44;59.63
71938;BME280;59810;48.800;9.086;2023-01-01T05:33:55;97963.78;;;14.44;59.53
71938;BME280;59810;48.800;9.086;2023-01-01T05:36:29;97967.59;;;14.43;59.79
71938;BME280;59810;48.800;9.086;2023-01-01T05:38:55;97972.16;;;14.42;59.50
71938;BME280;59810;48.800;9.086;2023-01-01T05:41:22;97965.91;;;14.42;59.52
71938;BME280;59810;48.800;9.086;2023-01-01T05:43:48;97971.66;;;14.45;59.45
71938;BME280;59810;48.800;9.086;2023-01-01T05:46:16;97968.94;;;14.45;59.26
71938;BME280;59810;48.800;9.086;2023-01-01T05:48:43;97973.28;;;14.46;59.13
71938;BME280;59810;48.800;9.086;2023-01-01T05:51:12;97970.59;;;14.51;59.18
71938;BME280;59810;48.800;9.086;2023-01-01T05:53:37;97981.47;;;14.51;58.63
71938;BME280;59810;48.800;9.086;2023-01-01T05:56:04;97974.94;;;14.57;58.57
71938;BME280;59810;48.800;9.086;2023-01-01T05:58:30;97987.44;;;14.53;58.67
71938;BME280;59810;48.800;9.086;2023-01-01T06:01:04;97986.34;;;14.54;58.57
71938;BME280;59810;48.800;9.086;2023-01-01T06:03:30;97983.09;;;14.52;58.63
71938;BME280;59810;48.800;9.086;2023-01-01T06:06:01;97988.53;;;14.52;58.47
71938;BME280;59810;48.800;9.086;2023-01-01T06:08:29;97979.28;;;14.43;59.15
71938;BME280;59810;48.800;9.086;2023-01-01T06:11:02;97985.72;;;14.37;58.95
71938;BME280;59810;48.800;9.086;2023-01-01T06:13:28;97983.34;;;14.46;58.71
71938;BME280;59810;48.800;9.086;2023-01-01T06:15:55;97995.03;;;14.46;58.72
71938;BME280;59810;48.800;9.086;2023-01-01T06:18:21;97991.75;;;14.44;58.80
71938;BME280;59810;48.800;9.086;2023-01-01T06:20:46;97995.59;;;14.48;58.68
71938;BME280;59810;48.800;9.086;2023-01-01T06:23:12;97989.88;;;14.45;58.74
71938;BME280;59810;48.800;9.086;2023-01-01T06:25:37;97995.31;;;14.45;58.35
71938;BME280;59810;48.800;9.086;2023-01-01T06:28:02;98001.84;;;14.49;58.56
71938;BME280;59810;48.800;9.086;2023-01-01T06:30:28;97993.09;;;14.42;58.69
71938;BME280;59810;48.800;9.086;2023-01-01T06:32:53;97998.78;;;14.40;58.68
71938;BME280;59810;48.800;9.086;2023-01-01T06:35:20;98000.41;;;14.41;58.41
71938;BME280;59810;48.800;9.086;2023-01-01T06:37:46;98002.06;;;14.42;58.50
71938;BME280;59810;48.800;9.086;2023-01-01T06:40:11;98003.72;;;14.43;58.21
71938;BME280;59810;48.800;9.086;2023-01-01T06:42:36;98006.91;;;14.35;58.51
71938;BME280;59810;48.800;9.086;2023-01-01T06:45:05;98007.44;;;14.32;58.79
71938;BME280;59810;48.800;9.086;2023-01-01T06:47:33;98003.59;;;14.28;58.72
71938;BME280;59810;48.800;9.086;2023-01-01T06:49:59;98005.75;;;14.26;58.75
71938;BME280;59810;48.800;9.086;2023-01-01T06:52:25;98010.13;;;14.27;58.68
71938;BME280;59810;48.800;9.086;2023-01-01T06:54:50;98011.75;;;14.28;58.93
71938;BME280;59810;48.800;9.086;2023-01-01T06:57:15;98005.75;;;14.26;58.42
71938;BME280;59810;48.800;9.086;2023-01-01T06:59:41;98008.53;;;14.31;58.28
71938;BME280;59810;48.800;9.086;2023-01-01T07:02:09;97997.94;;;14.35;57.79
71938;BME280;59810;48.800;9.086;2023-01-01T07:04:37;97999.03;;;14.33;58.66
71938;BME280;59810;48.800;9.086;2023-01-01T07:07:03;98003.91;;;14.31;58.74
71938;BME280;59810;48.800;9.086;2023-01-01T07:09:30;98010.16;;;14.32;59.08
71938;BME280;59810;48.800;9.086;2023-01-01T07:11:58;98014.47;;;14.28;58.80
71938;BME280;59810;48.800;9.086;2023-01-01T07:14:23;98018.03;;;14.33;59.92
71938;BME280;59810;48.800;9.086;2023-01-01T07:16:49;98024.56;;;14.32;58.71
71938;BME280;59810;48.800;9.086;2023-01-01T07:19:14;98006.88;;;14.30;59.03
71938;BME280;59810;48.800;9.086;2023-01-01T07:21:44;98010.94;;;14.27;59.26
71938;BME280;59810;48.800;9.086;2023-01-01T07:24:12;98010.13;;;14.27;59.25
71938;BME280;59810;48.800;9.086;2023-01-01T07:26:38;98007.66;;;14.25;58.70
71938;BME280;59810;48.800;9.086;2023-01-01T07:29:05;98019.59;;;14.24;59.38
71938;BME280;59810;48.800;9.086;2023-01-01T07:31:33;98023.66;;;14.22;58.63
71938;BME280;59810;48.800;9.086;2023-01-01T07:33:59;98026.38;;;14.22;58.75
71938;BME280;59810;48.800;9.086;2023-01-01T07:36:24;98022.31;;;14.19;58.53
71938;BME280;59810;48.800;9.086;2023-01-01T07:38:49;98030.47;;;14.24;58.44
71938;BME280;59810;48.800;9.086;2023-01-01T07:41:15;98043.25;;;14.29;58.61
71938;BME280;59810;48.800;9.086;2023-01-01T07:43:40;98048.13;;;14.27;58.31
71938;BME280;59810;48.800;9.086;2023-01-01T07:46:05;98047.66;;;14.35;58.70
71938;BME280;59810;48.800;9.086;2023-01-01T07:48:31;98045.72;;;14.30;57.89
71938;BME280;59810;48.800;9.086;2023-01-01T07:50:56;98050.13;;;14.37;57.82
71938;BME280;59810;48.800;9.086;2023-01-01T07:53:24;98059.91;;;14.38;57.73
71938;BME280;59810;48.800;9.086;2023-01-01T07:55:49;98062.06;;;14.36;57.75
71938;BME280;59810;48.800;9.086;2023-01-01T07:58:15;98063.41;;;14.33;57.85
71938;BME280;59810;48.800;9.086;2023-01-01T08:00:44;98066.63;;;14.30;57.98
71938;BME280;59810;48.800;9.086;2023-01-01T08:03:10;98076.19;;;14.32;57.75
71938;BME280;59810;48.800;9.086;2023-01-01T08:05:36;98082.16;;;14.35;57.41
71938;BME280;59810;48.800;9.086;2023-01-01T08:08:02;98086.22;;;14.32;57.62
71938;BME280;59810;48.800;9.086;2023-01-01T08:10:27;98083.75;;;14.30;57.80
71938;BME280;59810;48.800;9.086;2023-01-01T08:13:02;98098.41;;;14.29;57.77
71938;BME280;59810;48.800;9.086;2023-01-01T08:15:28;98084.25;;;14.27;57.82
71938;BME280;59810;48.800;9.086;2023-01-01T08:17:55;98087.81;;;14.28;57.93
71938;BME280;59810;48.800;9.086;2023-01-01T08:20:21;98091.34;;;14.28;57.83
71938;BME280;59810;48.800;9.086;2023-01-01T08:22:46;98087.81;;;14.28;57.70
71938;BME280;59810;48.800;9.086;2023-01-01T08:25:12;98093.75;;;14.25;57.93
71938;BME280;59810;48.800;9.086;2023-01-01T08:27:37;98094.84;;;14.24;57.73
71938;BME280;59810;48.800;9.086;2023-01-01T08:30:03;98104.34;;;14.26;57.50
71938;BME280;59810;48.800;9.086;2023-01-01T08:32:29;98099.22;;;14.30;57.41
71938;BME280;59810;48.800;9.086;2023-01-01T08:34:56;98097.38;;;14.36;57.50
71938;BME280;59810;48.800;9.086;2023-01-01T08:37:22;98099.28;;;14.35;57.52
71938;BME280;59810;48.800;9.086;2023-01-01T08:39:49;98101.47;;;14.38;57.11
71938;BME280;59810;48.800;9.086;2023-01-01T08:42:14;98103.91;;;14.40;57.09
71938;BME280;59810;48.800;9.086;2023-01-01T08:44:40;98100.69;;;14.43;57.07
71938;BME280;59810;48.800;9.086;2023-01-01T08:47:05;98105.28;;;14.42;57.19
71938;BME280;59810;48.800;9.086;2023-01-01T08:49:30;98103.41;;;14.43;57.25
71938;BME280;59810;48.800;9.086;2023-01-01T08:51:56;98102.06;;;14.45;56.89
71938;BME280;59810;48.800;9.086;2023-01-01T08:54:22;98100.19;;;14.46;57.16
71938;BME280;59810;48.800;9.086;2023-01-01T08:56:47;98096.13;;;14.48;56.85
71938;BME280;59810;48.800;9.086;2023-01-01T08:59:12;98101.00;;;14.51;56.80
71938;BME280;59810;48.800;9.086;2023-01-01T09:01:37;98103.72;;;14.51;57.02
71938;BME280;59810;48.800;9.086;2023-01-01T09:04:03;98095.06;;;14.54;56.63
71938;BME280;59810;48.800;9.086;2023-01-01T09:06:28;98104.31;;;14.58;56.60
71938;BME280;59810;48.800;9.086;2023-01-01T09:08:54;98107.56;;;14.60;56.47
71938;BME280;59810;48.800;9.086;2023-01-01T09:11:24;98104.84;;;14.60;57.38
71938;BME280;59810;48.800;9.086;2023-01-01T09:13:50;98111.44;;;14.65;56.39
71938;BME280;59810;48.800;9.086;2023-01-01T09:16:18;98113.34;;;14.64;56.68
71938;BME280;59810;48.800;9.086;2023-01-01T09:18:47;98121.22;;;14.66;57.17
71938;BME280;59810;48.800;9.086;2023-01-01T09:21:13;98127.22;;;14.68;56.70
71938;BME280;59810;48.800;9.086;2023-01-01T09:23:39;98114.97;;;14.65;56.63
71938;BME280;59810;48.800;9.086;2023-01-01T09:26:06;98122.31;;;14.65;56.45
71938;BME280;59810;48.800;9.086;2023-01-01T09:28:33;98119.59;;;14.65;56.88
71938;BME280;59810;48.800;9.086;2023-01-01T09:31:02;98119.06;;;14.68;56.38
71938;BME280;59810;48.800;9.086;2023-01-01T09:33:31;98128.31;;;14.72;56.56
71938;BME280;59810;48.800;9.086;2023-01-01T09:36:11;98120.16;;;14.72;56.54
71938;BME280;59810;48.800;9.086;2023-01-01T09:38:36;98119.34;;;14.76;56.10
71938;BME280;59810;48.800;9.086;2023-01-01T09:44:00;98130.25;;;14.81;56.20
71938;BME280;59810;48.800;9.086;2023-01-01T09:46:27;98136.78;;;14.85;56.19
71938;BME280;59810;48.800;9.086;2023-01-01T09:48:59;98130.28;;;14.86;55.96
71938;BME280;59810;48.800;9.086;2023-01-01T09:51:29;98130.03;;;14.93;55.93
71938;BME280;59810;48.800;9.086;2023-01-01T09:54:05;98135.78;;;14.97;56.29
71938;BME280;59810;48.800;9.086;2023-01-01T09:56:35;98135.25;;;15.00;56.84
71938;BME280;59810;48.800;9.086;2023-01-01T09:59:00;98131.44;;;15.01;56.18
71938;BME280;59810;48.800;9.086;2023-01-01T10:12:37;98132.91;;;15.29;61.35
71938;BME280;59810;48.800;9.086;2023-01-01T10:15:17;98128.28;;;15.39;55.62
71938;BME280;59810;48.800;9.086;2023-01-01T10:17:47;98127.22;;;15.55;57.83
71938;BME280;59810;48.800;9.086;2023-01-01T10:20:25;98128.09;;;15.66;57.70
71938;BME280;59810;48.800;9.086;2023-01-01T10:23:00;98131.09;;;15.75;57.29
71938;BME280;59810;48.800;9.086;2023-01-01T10:25:35;98122.13;;;15.79;55.43
71938;BME280;59810;48.800;9.086;2023-01-01T10:28:04;98124.84;;;15.84;54.22
71938;BME280;59810;48.800;9.086;2023-01-01T10:30:35;98116.66;;;15.90;54.01
71938;BME280;59810;48.800;9.086;2023-01-01T10:33:01;98113.41;;;15.93;53.35
71938;BME280;59810;48.800;9.086;2023-01-01T10:35:48;98115.59;;;15.96;53.23
71938;BME280;59810;48.800;9.086;2023-01-01T10:38:22;98118.31;;;16.01;52.84
71938;BME280;59810;48.800;9.086;2023-01-01T10:40:49;98120.22;;;16.05;53.26
71938;BME280;59810;48.800;9.086;2023-01-01T10:43:14;98109.06;;;16.07;51.82
71938;BME280;59810;48.800;9.086;2023-01-01T10:45:43;98115.84;;;16.19;51.86
71938;BME280;59810;48.800;9.086;2023-01-01T10:48:18;98108.22;;;16.27;51.75
71938;BME280;59810;48.800;9.086;2023-01-01T10:55:49;98118.00;;;16.43;51.44
71938;BME280;59810;48.800;9.086;2023-01-01T10:58:33;98117.69;;;16.55;51.83
71938;BME280;59810;48.800;9.086;2023-01-01T11:01:03;98113.34;;;16.59;50.74
71938;BME280;59810;48.800;9.086;2023-01-01T11:03:29;98113.34;;;16.59;51.22
71938;BME280;59810;48.800;9.086;2023-01-01T11:06:02;98108.16;;;16.67;50.68
71938;BME280;59810;48.800;9.086;2023-01-01T11:08:29;98107.06;;;16.68;50.99
71938;BME280;59810;48.800;9.086;2023-01-01T11:11:00;98095.31;;;16.73;50.33
71938;BME280;59810;48.800;9.086;2023-01-01T11:13:27;98101.03;;;16.76;49.83
71938;BME280;59810;48.800;9.086;2023-01-01T11:15:53;98096.38;;;16.82;49.89
71938;BME280;59810;48.800;9.086;2023-01-01T11:18:32;98095.28;;;16.83;49.76
71938;BME280;59810;48.800;9.086;2023-01-01T11:21:01;98097.41;;;16.96;49.93
71938;BME280;59810;48.800;9.086;2023-01-01T11:23:29;98096.53;;;17.06;49.48
71938;BME280;59810;48.800;9.086;2023-01-01T11:28:40;98088.28;;;17.21;48.42
71938;BME280;59810;48.800;9.086;2023-01-01T11:33:37;98079.16;;;17.41;47.55
71938;BME280;59810;48.800;9.086;2023-01-01T11:36:04;98075.56;;;17.46;46.74
71938;BME280;59810;48.800;9.086;2023-01-01T11:38:30;98064.84;;;17.54;47.17
71938;BME280;59810;48.800;9.086;2023-01-01T11:41:02;98059.09;;;17.61;47.20
71938;BME280;59810;48.800;9.086;2023-01-01T11:43:33;98053.59;;;17.66;45.72
71938;BME280;59810;48.800;9.086;2023-01-01T11:46:05;98050.56;;;17.72;45.85
71938;BME280;59810;48.800;9.086;2023-01-01T11:48:34;98045.00;;;17.83;45.92
71938;BME280;59810;48.800;9.086;2023-01-01T11:51:03;98050.19;;;17.84;45.98
71938;BME280;59810;48.800;9.086;2023-01-01T11:53:37;98049.59;;;17.92;45.22
71938;BME280;59810;48.800;9.086;2023-01-01T11:56:11;98045.47;;;17.95;44.94
71938;BME280;59810;48.800;9.086;2023-01-01T11:58:58;98047.28;;;18.04;45.24
71938;BME280;59810;48.800;9.086;2023-01-01T12:07:05;98040.81;;;18.19;44.46
71938;BME280;59810;48.800;9.086;2023-01-01T12:12:25;98027.31;;;18.33;43.93
71938;BME280;59810;48.800;9.086;2023-01-01T12:20:27;98028.94;;;18.58;42.83
71938;BME280;59810;48.800;9.086;2023-01-01T12:22:55;98025.63;;;18.61;42.78
71938;BME280;59810;48.800;9.086;2023-01-01T12:25:25;98021.50;;;18.63;42.83
71938;BME280;59810;48.800;9.086;2023-01-01T12:28:50;98023.44;;;18.63;43.09
71938;BME280;59810;48.800;9.086;2023-01-01T12:31:07;98020.94;;;18.67;42.88
71938;BME280;59810;48.800;9.086;2023-01-01T12:36:31;98008.66;;;18.64;43.20
71938;BME280;59810;48.800;9.086;2023-01-01T12:42:06;98004.16;;;18.73;43.76
71938;BME280;59810;48.800;9.086;2023-01-01T12:50:40;98006.81;;;18.78;43.28
71938;BME280;59810;48.800;9.086;2023-01-01T13:01:13;98001.13;;;18.75;42.76
71938;BME280;59810;48.800;9.086;2023-01-01T13:09:03;97998.69;;;18.73;42.06
71938;BME280;59810;48.800;9.086;2023-01-01T13:11:31;97995.28;;;18.81;42.27
71938;BME280;59810;48.800;9.086;2023-01-01T13:13:58;97994.19;;;18.82;42.39
71938;BME280;59810;48.800;9.086;2023-01-01T13:16:38;97988.19;;;18.80;42.06
71938;BME280;59810;48.800;9.086;2023-01-01T13:19:06;97989.28;;;18.79;43.04
71938;BME280;59810;48.800;9.086;2023-01-01T13:21:48;97997.34;;;18.71;42.36
71938;BME280;59810;48.800;9.086;2023-01-01T13:24:22;97984.72;;;18.75;42.13
71938;BME280;59810;48.800;9.086;2023-01-01T13:26:49;97986.56;;;18.79;42.58
71938;BME280;59810;48.800;9.086;2023-01-01T13:40:01;97982.81;;;18.94;43.86
71938;BME280;59810;48.800;9.086;2023-01-01T13:42:40;97974.00;;;18.97;43.48
71938;BME280;59810;48.800;9.086;2023-01-01T13:56:20;97953.78;;;18.31;45.20
71938;BME280;59810;48.800;9.086;2023-01-01T14:04:15;97959.19;;;18.13;45.08
71938;BME280;59810;48.800;9.086;2023-01-01T14:06:49;97963.84;;;18.12;45.13
71938;BME280;59810;48.800;9.086;2023-01-01T14:09:18;97971.56;;;18.05;45.74
71938;BME280;59810;48.800;9.086;2023-01-01T14:11:44;97969.94;;;18.04;45.30
71938;BME280;59810;48.800;9.086;2023-01-01T14:17:01;97977.16;;;17.95;47.14
71938;BME280;59810;48.800;9.086;2023-01-01T14:19:30;97971.88;;;17.75;49.17
71938;BME280;59810;48.800;9.086;2023-01-01T14:21:57;97975.22;;;17.66;48.49
71938;BME280;59810;48.800;9.086;2023-01-01T14:24:23;97973.50;;;17.41;50.43
71938;BME280;59810;48.800;9.086;2023-01-01T14:26:51;97977.44;;;17.30;51.13
71938;BME280;59810;48.800;9.086;2023-01-01T14:29:26;97978.00;;;17.22;51.49
71938;BME280;59810;48.800;9.086;2023-01-01T14:31:52;97977.25;;;17.17;52.18
71938;BME280;59810;48.800;9.086;2023-01-01T14:34:30;97980.34;;;17.05;52.48
71938;BME280;59810;48.800;9.086;2023-01-01T14:36:58;97975.00;;;16.85;53.64
71938;BME280;59810;48.800;9.086;2023-01-01T14:39:26;97974.81;;;16.71;53.18
71938;BME280;59810;48.800;9.086;2023-01-01T14:41:53;97977.03;;;16.59;53.55
71938;BME280;59810;48.800;9.086;2023-01-01T14:44:22;97975.69;;;16.51;54.76
71938;BME280;59810;48.800;9.086;2023-01-01T14:46:52;97969.78;;;16.34;54.75
71938;BME280;59810;48.800;9.086;2023-01-01T14:49:19;97969.25;;;16.27;55.22
71938;BME280;59810;48.800;9.086;2023-01-01T14:51:56;97972.81;;;16.17;55.59
71938;BME280;59810;48.800;9.086;2023-01-01T14:54:29;97971.22;;;16.06;56.37
71938;BME280;59810;48.800;9.086;2023-01-01T14:56:55;97970.69;;;16.04;56.30
71938;BME280;59810;48.800;9.086;2023-01-01T14:59:27;97965.25;;;15.88;56.85
71938;BME280;59810;48.800;9.086;2023-01-01T15:04:26;97969.66;;;15.79;57.18
71938;BME280;59810;48.800;9.086;2023-01-01T15:06:53;97971.31;;;15.65;58.25
71938;BME280;59810;48.800;9.086;2023-01-01T15:09:19;97970.72;;;15.53;58.39
71938;BME280;59810;48.800;9.086;2023-01-01T15:11:44;97984.34;;;15.48;58.64
71938;BME280;59810;48.800;9.086;2023-01-01T15:17:01;97981.59;;;15.27;59.57
71938;BME280;59810;48.800;9.086;2023-01-01T15:19:26;97978.63;;;15.19;59.29